.
WxDataArchive / Data Records for 2008-04-02
2008-04-01 April 2008 2008-04-03

Data Records for Wednesday, 02 April 2008

Time	Temp	Chill	HIndex	Humid	Dewpt	 Wind 	HiWind	WindDir	Rain 	Barom 
-----	----	-----	------	-----	-----	------	------	-------	-----	----- 
00:00	31.0	31.0	31.0	78	25.0	0	0	---	0.00	30.351 
00:05	30.7	30.7	30.7	79	25.0	0	0	---	0.00	30.355 
00:10	30.6	30.6	30.6	79	24.9	0	0	---	0.00	30.357 
00:15	30.4	30.4	30.4	80	25.0	0	0	---	0.00	30.358 
00:20	30.3	30.3	30.3	81	25.2	0	0	---	0.00	30.359 
00:25	30.1	30.1	30.1	81	25.0	0	0	---	0.00	30.361 
00:30	30.1	30.1	30.1	81	25.0	0	0	---	0.00	30.364 
00:35	30.0	30.0	30.0	81	24.9	0	0	---	0.00	30.366 
00:40	29.7	29.7	29.7	81	24.6	0	0	---	0.00	30.368 
00:45	29.4	29.4	29.4	82	24.6	0	0	---	0.00	30.369 
00:50	29.4	29.4	29.4	82	24.6	0	0	---	0.00	30.371 
00:55	29.4	29.4	29.4	83	24.9	0	0	---	0.00	30.371 
01:00	29.4	29.4	29.4	83	24.9	0	0	---	0.00	30.372 
01:05	29.4	29.4	29.4	83	24.9	0	0	---	0.00	30.371 
01:10	29.4	29.4	29.4	83	24.9	0	0	---	0.00	30.371 
01:15	29.3	29.3	29.3	83	24.8	0	0	---	0.00	30.371 
01:20	29.1	29.1	29.1	84	24.9	0	0	---	0.00	30.371 
01:25	29.3	29.3	29.3	84	25.1	0	0	---	0.00	30.371 
01:30	29.3	29.3	29.3	84	25.1	0	0	---	0.00	30.372 
01:35	29.3	29.3	29.3	84	25.1	0	0	---	0.00	30.373 
01:40	29.1	29.1	29.1	84	24.9	0	0	---	0.00	30.374 
01:45	29.1	29.1	29.1	84	24.9	0	0	---	0.00	30.374 
01:50	29.1	29.1	29.1	84	24.9	0	0	---	0.00	30.374 
01:55	29.1	29.1	29.1	84	24.9	0	0	---	0.00	30.375 
02:00	29.1	29.1	29.1	84	24.9	0	0	---	0.00	30.375 
02:05	29.0	29.0	29.0	84	24.8	0	0	---	0.00	30.376 
02:10	29.0	29.0	29.0	84	24.8	0	0	---	0.00	30.375 
02:15	28.8	28.8	28.8	84	24.6	0	0	---	0.00	30.379 
02:20	28.8	28.8	28.8	85	24.9	0	0	---	0.00	30.380 
02:25	28.7	28.7	28.7	85	24.8	0	0	---	0.00	30.378 
02:30	28.7	28.7	28.7	85	24.8	0	0	---	0.00	30.378 
02:35	28.5	28.5	28.5	85	24.6	0	0	---	0.00	30.381 
02:40	28.4	28.4	28.4	85	24.5	0	0	---	0.00	30.382 
02:45	28.2	28.2	28.2	85	24.3	0	0	---	0.00	30.381 
02:50	28.1	28.1	28.1	86	24.5	0	0	---	0.00	30.384 
02:55	27.8	27.8	27.8	86	24.2	0	0	---	0.00	30.387 
03:00	27.6	27.6	27.6	86	24.0	0	0	---	0.00	30.388 
03:05	27.3	27.3	27.3	86	23.7	0	0	---	0.00	30.389 
03:10	27.2	27.2	27.2	86	23.6	0	0	---	0.00	30.393 
03:15	27.0	27.0	27.0	87	23.7	0	0	---	0.00	30.396 
03:20	26.7	26.7	26.7	87	23.4	0	0	---	0.00	30.396 
03:25	26.6	26.6	26.6	87	23.3	0	0	---	0.00	30.399 
03:30	26.3	26.3	26.3	87	23.0	0	0	---	0.00	30.401 
03:35	26.1	26.1	26.1	87	22.8	0	0	---	0.00	30.403 
03:40	26.0	26.0	26.0	88	22.9	0	0	---	0.00	30.405 
03:45	25.8	25.8	25.8	88	22.7	0	0	---	0.00	30.407 
03:50	25.7	25.7	25.7	88	22.6	0	0	---	0.00	30.408 
03:55	25.6	25.6	25.6	88	22.5	0	0	---	0.00	30.411 
04:00	25.4	25.4	25.4	88	22.4	0	0	---	0.00	30.414 
04:05	25.1	25.1	25.1	88	22.1	0	0	---	0.00	30.413 
04:10	25.0	25.0	25.0	89	22.2	0	0	---	0.00	30.412 
04:15	24.8	24.8	24.8	89	22.0	0	0	---	0.00	30.416 
04:20	24.8	24.8	24.8	89	22.0	0	0	---	0.00	30.418 
04:25	24.8	24.8	24.8	90	22.3	0	0	---	0.00	30.420 
04:30	24.8	24.8	24.8	90	22.3	0	0	---	0.00	30.419 
04:35	24.7	24.7	24.7	90	22.2	0	0	---	0.00	30.420 
04:40	24.5	24.5	24.5	90	22.0	0	0	---	0.00	30.420 
04:45	24.4	24.4	24.4	90	21.9	0	0	---	0.00	30.422 
04:50	24.2	24.2	24.2	90	21.7	0	0	---	0.00	30.424 
04:55	23.9	23.9	23.9	90	21.4	0	0	---	0.00	30.422 
05:00	23.8	23.8	23.8	90	21.3	0	0	---	0.00	30.422 
05:05	23.6	23.6	23.6	90	21.1	0	0	---	0.00	30.422 
05:10	23.6	23.6	23.6	90	21.1	0	0	---	0.00	30.424 
05:15	23.5	23.5	23.5	90	21.0	0	0	---	0.00	30.427 
05:20	23.6	23.6	23.6	91	21.4	0	0	---	0.00	30.428 
05:25	23.6	23.6	23.6	91	21.4	0	0	---	0.00	30.432 
05:30	23.6	23.6	23.6	91	21.4	0	0	---	0.00	30.437 
05:35	23.6	23.6	23.6	91	21.4	0	0	---	0.00	30.436 
05:40	23.5	23.5	23.5	91	21.3	0	0	---	0.00	30.437 
05:45	23.3	23.3	23.3	91	21.1	0	0	---	0.00	30.442 
05:50	23.2	23.2	23.2	91	21.0	0	0	---	0.00	30.442 
05:55	23.0	23.0	23.0	91	20.8	0	0	---	0.00	30.443 
06:00	22.9	22.9	22.9	91	20.7	0	0	---	0.00	30.442 
06:05	22.9	22.9	22.9	91	20.7	0	0	---	0.00	30.444 
06:10	22.7	22.7	22.7	91	20.5	0	0	---	0.00	30.445 
06:15	22.5	22.5	22.5	91	20.3	0	0	---	0.00	30.444 
06:20	22.5	22.5	22.5	91	20.3	0	0	---	0.00	30.448 
06:25	22.5	22.5	22.5	92	20.5	0	0	---	0.00	30.449 
06:30	22.5	22.5	22.5	92	20.5	0	0	---	0.00	30.454 
06:35	22.5	22.5	22.5	92	20.5	0	0	---	0.00	30.457 
06:40	22.5	22.5	22.5	92	20.5	0	0	---	0.00	30.459 
06:45	22.7	22.7	22.7	92	20.7	0	0	---	0.00	30.460 
06:50	22.9	22.9	22.9	92	20.9	0	0	---	0.00	30.464 
06:55	23.2	23.2	23.2	92	21.2	0	0	---	0.00	30.465 
07:00	23.5	23.5	23.5	92	21.5	0	0	---	0.00	30.469 
07:05	23.9	23.9	23.9	92	21.9	0	0	---	0.00	30.474 
07:10	24.7	24.7	24.7	93	23.0	0	0	---	0.00	30.476 
07:15	25.4	25.4	25.4	93	23.7	0	1	225	0.00	30.477 
07:20	26.0	26.0	26.0	93	24.3	0	0	---	0.00	30.479 
07:25	26.7	26.7	26.7	93	25.0	0	0	---	0.00	30.480 
07:30	27.5	27.5	27.5	93	25.7	0	0	---	0.00	30.483 
07:35	28.4	28.4	28.4	94	26.9	0	0	---	0.00	30.486 
07:40	29.1	29.1	29.1	93	27.3	0	1	225	0.00	30.485 
07:45	30.0	30.0	30.0	92	28.0	0	1	225	0.00	30.484 
07:50	30.7	30.7	30.7	88	27.6	0	1	225	0.00	30.482 
07:55	31.3	31.3	31.3	83	26.7	0	1	225	0.00	30.484 
08:00	32.1	32.1	32.1	78	26.0	0	2	225	0.00	30.483 
08:05	32.4	32.4	32.4	72	24.4	0	2	225	0.00	30.484 
08:10	32.7	32.7	32.7	70	24.0	0	1	225	0.00	30.483 
08:15	32.8	32.8	32.8	67	23.1	0	2	225	0.00	30.483 
08:20	33.1	33.1	33.1	66	23.0	0	1	225	0.00	30.483 
08:25	33.4	33.4	33.4	63	22.2	0	2	225	0.00	30.484 
08:30	33.7	33.7	33.7	59	20.9	1	3	90	0.00	30.482 
08:35	33.8	33.8	33.8	60	21.4	0	2	90	0.00	30.481 
08:40	34.0	34.0	34.0	58	20.8	1	3	90	0.00	30.480 
08:45	34.1	34.1	34.1	55	19.6	2	6	112	0.00	30.480 
08:50	34.3	34.3	34.3	53	19.0	1	4	112	0.00	30.481 
08:55	34.9	34.9	34.9	57	21.2	1	2	112	0.00	30.481 
09:00	35.3	35.3	35.3	53	19.9	1	4	112	0.00	30.483 
09:05	35.8	35.8	35.8	54	20.8	1	5	90	0.00	30.484 
09:10	36.0	36.0	36.0	49	18.7	1	4	90	0.00	30.487 
09:15	36.2	36.2	36.2	49	18.9	1	4	90	0.00	30.488 
09:20	36.2	36.2	36.2	46	17.4	2	5	90	0.00	30.488 
09:25	36.6	36.6	36.6	47	18.3	2	6	90	0.00	30.484 
09:30	36.5	36.5	36.5	48	18.7	2	6	90	0.00	30.487 
09:35	36.6	36.6	36.6	48	18.8	2	4	112	0.00	30.486 
09:40	36.9	36.9	36.9	46	18.1	2	4	112	0.00	30.491 
09:45	37.0	37.0	37.0	44	17.1	2	6	112	0.00	30.488 
09:50	37.6	37.6	37.6	43	17.2	1	4	112	0.00	30.489 
09:55	37.8	37.8	37.8	47	19.4	2	6	112	0.00	30.485 
10:00	37.9	37.9	37.9	46	19.0	2	5	90	0.00	30.489 
10:05	37.8	37.8	37.8	44	17.9	2	5	90	0.00	30.490 
10:10	38.2	38.2	38.2	46	19.3	1	6	158	0.00	30.485 
10:15	38.2	38.2	38.2	43	17.7	2	9	90	0.00	30.486 
10:20	38.2	38.2	38.2	43	17.7	2	5	112	0.00	30.487 
10:25	38.8	38.8	38.8	47	20.3	2	5	112	0.00	30.485 
10:30	38.8	38.8	38.8	49	21.3	3	9	90	0.00	30.483 
10:35	39.1	39.1	39.1	44	19.0	3	6	112	0.00	30.486 
10:40	39.3	39.3	39.3	40	17.0	2	7	90	0.00	30.486 
10:45	39.3	36.5	39.3	43	18.7	4	7	112	0.00	30.491 
10:50	39.3	39.3	39.3	44	19.2	3	9	90	0.00	30.492 
10:55	39.9	39.9	39.9	47	21.3	1	5	90	0.00	30.490 
11:00	40.3	40.3	40.3	47	21.7	1	5	90	0.00	30.490 
11:05	40.8	40.8	40.8	43	20.1	3	7	112	0.00	30.487 
11:10	40.9	40.9	40.9	46	21.7	2	6	45	0.00	30.485 
11:15	40.8	40.8	40.8	44	20.6	2	9	22	0.00	30.483 
11:20	41.1	41.1	41.1	45	21.4	2	6	45	0.00	30.482 
11:25	41.2	41.2	41.2	44	21.0	2	6	45	0.00	30.482 
11:30	41.3	41.3	41.3	44	21.0	2	5	90	0.00	30.481 
11:35	41.3	41.3	41.3	43	20.5	3	9	112	0.00	30.480 
11:40	41.2	41.2	41.2	46	22.0	3	6	112	0.00	30.480 
11:45	41.2	41.2	41.2	44	21.0	3	7	112	0.00	30.480 
11:50	41.5	41.5	41.5	42	20.1	3	9	112	0.00	30.480 
11:55	41.6	41.6	41.6	46	22.4	2	7	112	0.00	30.478 
12:00	41.5	39.1	41.5	41	19.6	4	7	112	0.00	30.477 
12:05	42.1	42.1	42.1	48	23.8	2	5	112	0.00	30.478 
12:10	42.3	42.3	42.3	40	19.7	3	7	112	0.00	30.479 
12:15	42.5	42.5	42.5	43	21.6	2	7	112	0.00	30.477 
12:20	42.5	40.2	42.5	39	19.3	4	6	112	0.00	30.475 
12:25	42.6	42.6	42.6	38	18.8	1	6	68	0.00	30.471 
12:30	43.2	43.2	43.2	44	22.8	1	6	90	0.00	30.465 
12:35	43.3	43.3	43.3	39	20.0	2	6	22	0.00	30.465 
12:40	43.6	41.5	43.6	39	20.3	4	10	112	0.00	30.463 
12:45	42.9	42.9	42.9	39	19.7	3	10	90	0.00	30.460 
12:50	43.2	43.2	43.2	39	19.9	3	7	90	0.00	30.459 
12:55	43.3	43.3	43.3	39	20.0	3	6	112	0.00	30.457 
13:00	43.6	43.6	43.6	41	21.5	2	6	90	0.00	30.454 
13:05	43.8	43.8	43.8	36	18.6	3	7	90	0.00	30.450 
13:10	43.8	43.8	43.8	36	18.6	1	4	90	0.00	30.450 
13:15	44.2	44.2	44.2	40	21.4	2	9	90	0.00	30.449 
13:20	43.8	43.8	43.8	38	19.9	3	7	112	0.00	30.448 
13:25	43.8	43.8	43.8	43	22.8	2	6	112	0.00	30.447 
13:30	43.8	43.8	43.8	41	21.7	3	9	112	0.00	30.448 
13:35	43.5	41.4	43.5	38	19.6	4	7	112	0.00	30.446 
13:40	43.3	43.3	43.3	40	20.6	2	6	112	0.00	30.443 
13:45	43.8	43.8	43.8	39	20.5	3	7	112	0.00	30.440 
13:50	43.8	43.8	43.8	37	19.2	2	6	90	0.00	30.438 
13:55	44.1	44.1	44.1	38	20.1	2	6	112	0.00	30.435 
14:00	44.3	44.3	44.3	39	20.9	2	6	90	0.00	30.433 
14:05	44.6	44.6	44.6	36	19.3	1	6	90	0.00	30.433 
14:10	44.8	44.8	44.8	39	21.4	3	6	90	0.00	30.432 
14:15	44.6	44.6	44.6	39	21.2	2	6	112	0.00	30.432 
14:20	44.9	44.9	44.9	39	21.5	2	5	112	0.00	30.429 
14:25	44.8	44.8	44.8	37	20.1	2	5	90	0.00	30.429 
14:30	44.6	44.6	44.6	38	20.6	2	7	112	0.00	30.428 
14:35	44.6	44.6	44.6	41	22.4	1	5	112	0.00	30.428 
14:40	44.8	44.8	44.8	43	23.7	3	6	112	0.00	30.425 
14:45	44.8	44.8	44.8	39	21.4	1	4	90	0.00	30.422 
14:50	45.2	45.2	45.2	43	24.0	1	3	68	0.00	30.421 
14:55	45.4	45.4	45.4	39	21.9	2	6	90	0.00	30.421 
15:00	44.9	43.0	44.9	36	19.6	4	9	90	0.00	30.419 
15:05	44.6	44.6	44.6	38	20.6	3	9	112	0.00	30.419 
15:10	44.8	44.8	44.8	37	20.1	2	5	112	0.00	30.417 
15:15	45.2	43.3	45.2	38	21.1	4	9	112	0.00	30.413 
15:20	45.1	45.1	45.1	38	21.0	3	9	112	0.00	30.412 
15:25	45.1	45.1	45.1	35	19.1	3	8	112	0.00	30.406 
15:30	45.4	45.4	45.4	34	18.7	3	6	112	0.00	30.405 
15:35	45.4	45.4	45.4	34	18.7	2	6	90	0.00	30.403 
15:40	45.7	45.7	45.7	39	22.2	1	3	112	0.00	30.402 
15:45	46.0	46.0	46.0	37	21.2	2	5	112	0.00	30.395 
15:50	46.1	46.1	46.1	38	21.9	3	9	112	0.00	30.393 
15:55	46.0	46.0	46.0	35	19.9	3	8	112	0.00	30.393 
16:00	45.7	43.9	45.7	38	21.6	4	7	90	0.00	30.389 
16:05	45.7	43.9	45.7	38	21.6	4	9	90	0.00	30.388 
16:10	45.8	45.8	45.8	37	21.0	2	7	90	0.00	30.386 
16:15	46.0	46.0	46.0	36	20.6	2	6	112	0.00	30.386 
16:20	46.0	46.0	46.0	33	18.5	3	7	112	0.00	30.385 
16:25	45.8	45.8	45.8	34	19.0	3	7	112	0.00	30.382 
16:30	45.8	45.8	45.8	34	19.0	3	8	112	0.00	30.379 
16:35	45.8	45.8	45.8	35	19.7	2	6	90	0.00	30.376 
16:40	46.2	46.2	46.2	37	21.4	3	9	90	0.00	30.374 
16:45	45.8	44.0	45.8	39	22.3	4	7	112	0.00	30.372 
16:50	45.8	45.8	45.8	37	21.0	3	6	112	0.00	30.371 
16:55	45.7	43.9	45.7	35	19.6	4	7	90	0.00	30.370 
17:00	46.0	46.0	46.0	37	21.2	2	4	112	0.00	30.371 
17:05	46.0	46.0	46.0	37	21.2	3	7	112	0.00	30.372 
17:10	46.0	46.0	46.0	36	20.6	2	6	112	0.00	30.371 
17:15	45.7	43.9	45.7	36	20.3	4	9	112	0.00	30.368 
17:20	45.5	45.5	45.5	36	20.1	2	6	112	0.00	30.367 
17:25	45.2	45.2	45.2	36	19.8	3	9	112	0.00	30.368 
17:30	45.1	45.1	45.1	37	20.4	3	9	112	0.00	30.370 
17:35	45.1	45.1	45.1	37	20.4	2	5	112	0.00	30.371 
17:40	45.1	45.1	45.1	38	21.0	1	4	112	0.00	30.367 
17:45	44.9	44.9	44.9	37	20.2	2	5	112	0.00	30.368 
17:50	44.8	44.8	44.8	39	21.4	3	8	90	0.00	30.369 
17:55	44.6	42.6	44.6	37	20.0	4	10	90	0.00	30.367 
18:00	44.6	44.6	44.6	38	20.6	2	4	90	0.00	30.366 
18:05	44.6	44.6	44.6	38	20.6	2	9	112	0.00	30.366 
18:10	44.3	44.3	44.3	39	20.9	3	6	112	0.00	30.367 
18:15	44.2	44.2	44.2	38	20.2	3	6	112	0.00	30.364 
18:20	44.2	44.2	44.2	40	21.4	1	4	90	0.00	30.362 
18:25	44.1	44.1	44.1	39	20.7	3	7	112	0.00	30.360 
18:30	43.9	43.9	43.9	39	20.6	3	6	90	0.00	30.361 
18:35	43.6	43.6	43.6	39	20.3	2	6	90	0.00	30.360 
18:40	43.5	43.5	43.5	40	20.8	2	5	112	0.00	30.362 
18:45	43.3	43.3	43.3	40	20.6	2	4	112	0.00	30.362 
18:50	43.2	43.2	43.2	41	21.1	1	3	112	0.00	30.365 
18:55	43.1	43.1	43.1	40	20.4	2	5	90	0.00	30.362 
19:00	42.9	42.9	42.9	40	20.3	2	3	90	0.00	30.360 
19:05	42.8	42.8	42.8	42	21.3	1	3	112	0.00	30.352 
19:10	42.6	42.6	42.6	42	21.1	1	4	90	0.00	30.351 
19:15	42.3	42.3	42.3	43	21.4	1	2	90	0.00	30.350 
19:20	42.2	42.2	42.2	44	21.9	1	1	90	0.00	30.351 
19:25	42.1	42.1	42.1	45	22.3	1	2	90	0.00	30.349 
19:30	41.8	41.8	41.8	46	22.6	1	3	90	0.00	30.349 
19:35	41.6	41.6	41.6	46	22.4	1	3	90	0.00	30.351 
19:40	41.3	41.3	41.3	47	22.6	0	1	90	0.00	30.352 
19:45	41.1	41.1	41.1	48	22.9	0	1	90	0.00	30.354 
19:50	40.6	40.6	40.6	49	23.0	0	1	90	0.00	30.354 
19:55	40.3	40.3	40.3	49	22.7	0	1	90	0.00	30.353 
20:00	40.2	40.2	40.2	50	23.1	0	2	90	0.00	30.353 
20:05	40.1	40.1	40.1	50	23.0	0	2	90	0.00	30.352 
20:10	39.9	39.9	39.9	50	22.8	0	2	90	0.00	30.351 
20:15	39.9	39.9	39.9	51	23.3	0	1	90	0.00	30.352 
20:20	39.8	39.8	39.8	51	23.2	0	1	90	0.00	30.352 
20:25	39.6	39.6	39.6	51	23.0	0	1	90	0.00	30.352 
20:30	39.5	39.5	39.5	52	23.3	0	1	90	0.00	30.352 
20:35	39.3	39.3	39.3	53	23.6	0	1	90	0.00	30.353 
20:40	39.1	39.1	39.1	54	23.9	0	1	90	0.00	30.353 
20:45	38.9	38.9	38.9	54	23.7	0	1	90	0.00	30.354 
20:50	38.9	38.9	38.9	54	23.7	0	2	90	0.00	30.355 
20:55	38.9	38.9	38.9	55	24.1	0	1	90	0.00	30.355 
21:00	38.6	38.6	38.6	55	23.8	0	1	90	0.00	30.353 
21:05	38.3	38.3	38.3	56	24.0	0	1	90	0.00	30.352 
21:10	38.2	38.2	38.2	56	23.9	0	2	90	0.00	30.352 
21:15	38.0	38.0	38.0	56	23.7	1	1	90	0.00	30.351 
21:20	38.2	38.2	38.2	56	23.9	0	1	90	0.00	30.350 
21:25	38.0	38.0	38.0	56	23.7	0	2	90	0.00	30.351 
21:30	38.0	38.0	38.0	56	23.7	0	1	90	0.00	30.354 
21:35	37.9	37.9	37.9	56	23.6	0	1	90	0.00	30.353 
21:40	37.8	37.8	37.8	56	23.5	0	1	90	0.00	30.350 
21:45	37.8	37.8	37.8	57	24.0	0	2	90	0.00	30.350 
21:50	37.6	37.6	37.6	57	23.8	0	1	90	0.00	30.350 
21:55	37.6	37.6	37.6	56	23.3	0	2	90	0.00	30.350 
22:00	37.8	37.8	37.8	57	24.0	0	1	90	0.00	30.350 
22:05	37.8	37.8	37.8	57	24.0	0	2	90	0.00	30.347 
22:10	37.6	37.6	37.6	57	23.8	0	1	90	0.00	30.346 
22:15	37.5	37.5	37.5	58	24.1	0	1	90	0.00	30.345 
22:20	37.3	37.3	37.3	58	23.9	0	1	90	0.00	30.347 
22:25	37.2	37.2	37.2	58	23.8	0	1	90	0.00	30.344 
22:30	36.9	36.9	36.9	59	23.9	0	1	90	0.00	30.343 
22:35	36.6	36.6	36.6	60	24.0	0	0	---	0.00	30.341 
22:40	36.3	36.3	36.3	60	23.8	0	0	---	0.00	30.342 
22:45	35.9	35.9	35.9	62	24.2	0	1	90	0.00	30.340 
22:50	35.8	35.8	35.8	62	24.1	0	2	90	0.00	30.338 
22:55	36.0	36.0	36.0	62	24.3	0	2	90	0.00	30.336 
23:00	36.3	36.3	36.3	61	24.2	1	2	90	0.00	30.336 
23:05	36.5	36.5	36.5	61	24.3	0	1	90	0.00	30.333 
23:10	36.5	36.5	36.5	61	24.3	0	1	90	0.00	30.332 
23:15	36.5	36.5	36.5	61	24.3	0	2	90	0.00	30.331 
23:20	36.5	36.5	36.5	62	24.7	0	0	---	0.00	30.330 
23:25	36.3	36.3	36.3	62	24.5	0	0	---	0.00	30.330 
23:30	36.0	36.0	36.0	63	24.6	0	0	---	0.00	30.325 
23:35	35.8	35.8	35.8	64	24.8	0	1	90	0.00	30.322 
23:40	35.8	35.8	35.8	64	24.8	0	1	90	0.00	30.323 
23:45	35.6	35.6	35.6	64	24.6	0	1	90	0.00	30.323 
23:50	35.5	35.5	35.5	64	24.5	0	1	90	0.00	30.321 
23:55	35.5	35.5	35.5	64	24.5	0	1	90	0.00	30.323 

CoCoRaHS
IN-AL-39
A2 Web Hosting
Creative Commons License
GoDaddy
Look for:

loaded 2017-12-12 07:16:23 • last modified 2010-11-18 10:43:29
Privacy PolicyDisclaimer
• wx.awcolley.com is powered by PmWiki v.2002016 •
• all content (unless otherwise noted) © 2017 A W Colley